Time;durP1;ratioP1;P1;durP2;ratioP2;P2;SDS_P1;SDS_P2;PMS_P1;PMS_P2;Temp;Humidity;BMP_temperature;BMP_pressure;BME280_temperature;BME280_humidity;BME280_pressure;Samples;Min_cycle;Max_cycle;Signal;HPM_P1;HPM_P2
2023/11/08 00:02:19;;;;;;;1.33;1.00;;;11.10;99.90;;;;;;5054051;28;20041;-69
2023/11/08 00:05:06;;;;;;;1.70;1.20;;;11.10;99.90;;;;;;5068542;28;20040;-69
2023/11/08 00:07:52;;;;;;;3.40;1.45;;;11.10;99.90;;;;;;5049208;28;20110;-69
2023/11/08 00:10:40;;;;;;;4.18;1.48;;;11.10;99.90;;;;;;5051240;28;20045;-69
2023/11/08 00:13:26;;;;;;;2.80;1.02;;;11.10;99.90;;;;;;5052749;28;20044;-69
2023/11/08 00:16:12;;;;;;;1.40;1.10;;;11.10;99.90;;;;;;5049936;28;20033;-69
2023/11/08 00:18:58;;;;;;;1.70;1.20;;;11.10;99.90;;;;;;5049909;28;20052;-69
2023/11/08 00:21:44;;;;;;;1.92;1.30;;;11.10;99.90;;;;;;5048637;28;20550;-69
2023/11/08 00:24:30;;;;;;;1.63;1.30;;;11.10;99.90;;;;;;5063454;28;20044;-69
2023/11/08 00:27:16;;;;;;;3.13;1.30;;;11.10;99.90;;;;;;5068045;28;20497;-69
2023/11/08 00:30:03;;;;;;;3.53;1.50;;;11.10;99.90;;;;;;5069347;28;20514;-70
2023/11/08 00:32:49;;;;;;;1.58;1.00;;;11.10;99.90;;;;;;5060308;28;20049;-70
2023/11/08 00:35:35;;;;;;;1.65;1.33;;;11.10;99.90;;;;;;5049251;28;20037;-70
2023/11/08 00:38:21;;;;;;;1.40;1.10;;;11.10;99.90;;;;;;5048707;28;20669;-70
2023/11/08 00:41:07;;;;;;;2.53;1.50;;;11.10;99.90;;;;;;5056041;28;20355;-70
2023/11/08 00:43:55;;;;;;;2.15;1.20;;;11.10;99.90;;;;;;5058789;28;20505;-70
2023/11/08 00:46:41;;;;;;;4.05;1.20;;;11.10;99.90;;;;;;5061258;28;20057;-70
2023/11/08 00:49:28;;;;;;;2.08;1.23;;;11.10;99.90;;;;;;5069070;28;20078;-70
2023/11/08 00:52:14;;;;;;;1.85;0.90;;;11.10;99.90;;;;;;5066276;28;20048;-69
2023/11/08 00:55:00;;;;;;;1.80;0.98;;;11.00;99.90;;;;;;5068395;28;20048;-69
2023/11/08 00:57:46;;;;;;;1.70;1.10;;;11.00;99.90;;;;;;5057849;28;20048;-68
2023/11/08 01:00:32;;;;;;;2.42;1.17;;;11.10;99.90;;;;;;5049730;28;20499;-69
2023/11/08 01:03:18;;;;;;;1.20;1.10;;;11.10;99.90;;;;;;5059908;28;20044;-69
2023/11/08 01:06:04;;;;;;;2.15;1.40;;;11.10;99.90;;;;;;5068667;28;20041;-69
2023/11/08 01:08:50;;;;;;;1.90;1.30;;;11.10;99.90;;;;;;5069046;28;20215;-68
2023/11/08 01:11:37;;;;;;;1.95;1.13;;;11.10;99.90;;;;;;5065722;28;20055;-68
2023/11/08 01:14:23;;;;;;;2.03;1.35;;;11.10;99.90;;;;;;5053258;28;20070;-69
2023/11/08 01:17:10;;;;;;;2.10;1.17;;;11.10;99.90;;;;;;5048830;28;20041;-68
2023/11/08 01:19:56;;;;;;;2.40;1.15;;;11.00;99.90;;;;;;5048798;28;20053;-68
2023/11/08 01:22:42;;;;;;;1.27;1.00;;;11.10;99.90;;;;;;5051456;28;20100;-68
2023/11/08 01:25:27;;;;;;;3.83;1.40;;;11.10;99.90;;;;;;5048883;28;20047;-68
2023/11/08 01:28:13;;;;;;;1.90;1.23;;;11.10;99.90;;;;;;5068931;28;20101;-68
2023/11/08 01:30:59;;;;;;;2.78;1.38;;;11.10;99.90;;;;;;5069332;28;20047;-68
2023/11/08 01:33:45;;;;;;;2.55;1.50;;;11.10;99.90;;;;;;5072866;28;20040;-68
2023/11/08 01:36:31;;;;;;;1.73;1.20;;;11.10;99.90;;;;;;5059783;28;20506;-68
2023/11/08 01:39:17;;;;;;;1.77;1.33;;;11.10;99.90;;;;;;5052354;28;20072;-68
2023/11/08 01:42:03;;;;;;;4.63;1.67;;;11.10;99.90;;;;;;5052436;28;20049;-69
2023/11/08 01:44:49;;;;;;;3.10;1.40;;;11.10;99.90;;;;;;5067043;28;20421;-69
2023/11/08 01:47:39;;;;;;;2.78;1.20;;;11.10;99.90;;;;;;5082954;28;20057;-69
2023/11/08 01:50:26;;;;;;;1.35;1.20;;;11.00;99.90;;;;;;5071601;28;20043;-68
2023/11/08 01:53:13;;;;;;;3.20;1.33;;;11.00;99.90;;;;;;5068088;28;20037;-69
2023/11/08 01:55:59;;;;;;;2.38;1.15;;;11.00;99.90;;;;;;5051874;28;20041;-68
2023/11/08 01:58:47;;;;;;;2.60;1.38;;;10.90;99.90;;;;;;5054649;28;20094;-69
2023/11/08 02:01:33;;;;;;;1.50;1.17;;;10.90;99.90;;;;;;5066935;28;20044;-69
2023/11/08 02:04:20;;;;;;;2.90;1.58;;;10.90;99.90;;;;;;5052238;28;20434;-69
2023/11/08 02:07:06;;;;;;;2.17;1.23;;;10.90;99.90;;;;;;5051902;28;20613;-69
2023/11/08 02:09:52;;;;;;;2.35;1.42;;;10.80;99.90;;;;;;5050749;28;20063;-69
2023/11/08 02:12:40;;;;;;;3.92;1.48;;;10.80;99.90;;;;;;5056895;28;20505;-68
2023/11/08 02:15:27;;;;;;;3.17;2.17;;;10.80;99.90;;;;;;5055291;28;20072;-69
2023/11/08 02:18:13;;;;;;;2.65;1.42;;;10.70;99.90;;;;;;5051402;28;20045;-68
2023/11/08 02:21:00;;;;;;;3.33;1.48;;;10.60;99.90;;;;;;5068672;28;20529;-69
2023/11/08 02:23:46;;;;;;;1.83;1.33;;;10.60;99.90;;;;;;5052091;28;20528;-68
2023/11/08 02:26:32;;;;;;;1.40;1.20;;;10.60;99.90;;;;;;5054937;28;20110;-68
2023/11/08 02:29:19;;;;;;;2.45;1.40;;;10.60;99.90;;;;;;5070806;28;20126;-67
2023/11/08 02:32:08;;;;;;;1.75;1.40;;;10.60;99.90;;;;;;5059934;28;20521;-69
2023/11/08 02:34:54;;;;;;;4.15;1.70;;;10.50;99.90;;;;;;5051771;28;20556;-78
2023/11/08 02:37:41;;;;;;;2.13;1.27;;;10.40;99.90;;;;;;5070035;28;20572;-76
2023/11/08 02:40:27;;;;;;;2.38;1.33;;;10.40;99.90;;;;;;5071343;28;20036;-78
2023/11/08 02:43:13;;;;;;;1.98;1.40;;;10.40;99.90;;;;;;5067369;28;20494;-81
2023/11/08 02:45:59;;;;;;;1.90;1.33;;;10.40;99.90;;;;;;5070446;28;20652;-80
2023/11/08 02:48:45;;;;;;;1.95;1.25;;;10.30;99.90;;;;;;5070632;28;20044;-78
2023/11/08 02:51:31;;;;;;;4.50;1.65;;;10.30;99.90;;;;;;5050498;28;20052;-78
2023/11/08 02:54:17;;;;;;;2.47;1.60;;;10.30;99.90;;;;;;5057563;28;20032;-79
2023/11/08 02:57:03;;;;;;;4.28;1.50;;;10.20;99.90;;;;;;5050818;28;20041;-79
2023/11/08 02:59:50;;;;;;;2.92;1.73;;;10.20;99.90;;;;;;5050180;28;20052;-79
2023/11/08 03:02:39;;;;;;;4.68;1.70;;;10.20;99.90;;;;;;5057981;28;20084;-79
2023/11/08 03:05:25;;;;;;;4.07;1.73;;;10.20;99.90;;;;;;5069148;28;20098;-78
2023/11/08 03:08:11;;;;;;;2.15;1.55;;;10.10;99.90;;;;;;5057789;28;20056;-73
2023/11/08 03:10:57;;;;;;;2.38;1.48;;;10.20;99.90;;;;;;5057469;28;20041;-73
2023/11/08 03:13:43;;;;;;;2.83;1.55;;;10.10;99.90;;;;;;5071341;28;20076;-72
2023/11/08 03:16:29;;;;;;;1.60;1.38;;;10.10;99.90;;;;;;5068284;28;20063;-72
2023/11/08 03:19:15;;;;;;;1.45;1.35;;;10.00;99.90;;;;;;5051103;28;20083;-73
2023/11/08 03:22:02;;;;;;;3.28;1.30;;;10.00;99.90;;;;;;5066200;28;20075;-72
2023/11/08 03:24:48;;;;;;;3.20;1.70;;;10.00;99.90;;;;;;5069158;28;20386;-73
2023/11/08 03:27:34;;;;;;;1.65;1.33;;;10.00;99.90;;;;;;5082604;28;20474;-73
2023/11/08 03:30:20;;;;;;;3.08;1.40;;;10.00;99.90;;;;;;5051039;28;20476;-73
2023/11/08 03:33:06;;;;;;;2.15;1.08;;;10.00;99.90;;;;;;5049244;28;20057;-73
2023/11/08 03:35:52;;;;;;;2.55;1.50;;;10.00;99.90;;;;;;5064581;28;20513;-73
2023/11/08 03:38:38;;;;;;;2.67;1.52;;;10.00;99.90;;;;;;5070044;28;20458;-73
2023/11/08 03:41:27;;;;;;;3.28;1.20;;;10.00;99.90;;;;;;5059676;28;20045;-73
2023/11/08 03:44:13;;;;;;;3.05;1.55;;;10.00;99.90;;;;;;5050749;28;20606;-78
2023/11/08 03:46:59;;;;;;;2.60;1.77;;;10.00;99.90;;;;;;5050054;28;20049;-76
2023/11/08 03:49:45;;;;;;;3.40;1.40;;;9.90;99.90;;;;;;5049713;28;20045;-76
2023/11/08 03:52:31;;;;;;;2.80;1.48;;;9.90;99.90;;;;;;5056692;28;20119;-75
2023/11/08 03:55:17;;;;;;;3.25;1.48;;;9.90;99.90;;;;;;5066870;28;20089;-76
2023/11/08 03:58:03;;;;;;;2.85;1.40;;;9.90;99.90;;;;;;5058029;28;20040;-75
2023/11/08 04:00:49;;;;;;;2.60;1.38;;;9.90;99.90;;;;;;5067207;28;20048;-76
2023/11/08 04:03:35;;;;;;;1.23;1.13;;;9.90;99.90;;;;;;5070346;28;20513;-79
2023/11/08 04:06:21;;;;;;;3.08;1.60;;;9.90;99.90;;;;;;5068272;28;20449;-79
2023/11/08 04:09:07;;;;;;;2.65;1.50;;;9.90;99.90;;;;;;5069749;28;20460;-77
2023/11/08 04:11:53;;;;;;;2.65;1.50;;;9.90;99.90;;;;;;5069454;28;20127;-77
2023/11/08 04:14:39;;;;;;;3.30;1.45;;;9.80;99.90;;;;;;5063655;28;20059;-78
2023/11/08 04:17:25;;;;;;;4.55;2.08;;;9.80;99.90;;;;;;5048688;28;20251;-77
2023/11/08 04:20:12;;;;;;;3.10;1.60;;;9.90;99.90;;;;;;5034911;28;20053;-78
2023/11/08 04:22:58;;;;;;;5.00;2.05;;;9.80;99.90;;;;;;5050286;28;20538;-77
2023/11/08 04:25:44;;;;;;;3.15;1.50;;;9.80;99.90;;;;;;5049496;28;20079;-76
2023/11/08 04:28:31;;;;;;;2.70;1.60;;;9.80;99.90;;;;;;5048991;28;20662;-76
2023/11/08 04:31:17;;;;;;;4.47;1.60;;;9.80;99.90;;;;;;5068850;28;20033;-77
2023/11/08 04:34:03;;;;;;;3.42;1.40;;;9.80;99.90;;;;;;5051011;28;20482;-77
2023/11/08 04:36:49;;;;;;;3.67;1.60;;;9.90;99.90;;;;;;5049379;28;20037;-78
2023/11/08 04:39:37;;;;;;;5.85;1.48;;;9.90;99.90;;;;;;5050259;28;20048;-78
2023/11/08 04:42:23;;;;;;;2.13;1.42;;;9.90;99.90;;;;;;5067511;28;20040;-77
2023/11/08 04:45:09;;;;;;;2.38;1.40;;;9.90;99.90;;;;;;5067102;28;20537;-78
2023/11/08 04:47:55;;;;;;;3.63;1.40;;;10.00;99.90;;;;;;5068703;28;20060;-78
2023/11/08 04:50:41;;;;;;;4.40;1.60;;;10.00;99.90;;;;;;5067674;28;20052;-77
2023/11/08 04:53:27;;;;;;;5.35;2.10;;;10.10;99.90;;;;;;5069244;28;20535;-79
2023/11/08 04:56:13;;;;;;;2.60;1.35;;;10.10;99.90;;;;;;5063919;28;20051;-78
2023/11/08 04:58:59;;;;;;;3.10;1.45;;;10.10;99.90;;;;;;5061824;28;20528;-78
2023/11/08 05:01:45;;;;;;;2.42;1.35;;;10.20;99.90;;;;;;5048734;28;20041;-77
2023/11/08 05:04:31;;;;;;;4.70;2.05;;;10.20;99.90;;;;;;5048353;28;20048;-77
2023/11/08 05:07:20;;;;;;;2.47;1.58;;;10.30;99.90;;;;;;5049188;28;20414;-79
2023/11/08 05:10:07;;;;;;;3.00;1.13;;;10.30;99.90;;;;;;5048552;28;20129;-76
2023/11/08 05:12:53;;;;;;;3.30;1.52;;;10.30;99.90;;;;;;5049334;28;20052;-80
2023/11/08 05:15:39;;;;;;;3.90;1.40;;;10.40;99.90;;;;;;5047416;28;20044;-80
2023/11/08 05:18:25;;;;;;;2.88;1.58;;;10.40;99.90;;;;;;5064485;28;20070;-80
2023/11/08 05:21:12;;;;;;;2.50;1.70;;;10.50;99.90;;;;;;5068168;28;20044;-78
2023/11/08 05:23:58;;;;;;;5.32;2.20;;;10.50;99.90;;;;;;5053341;28;20497;-80
2023/11/08 05:26:45;;;;;;;1.98;1.30;;;10.50;99.90;;;;;;5054486;28;20144;-80
2023/11/08 05:29:31;;;;;;;3.55;1.50;;;10.50;99.90;;;;;;5065875;28;20041;-79
2023/11/08 05:32:19;;;;;;;6.03;1.67;;;10.50;99.90;;;;;;5076574;28;20047;-78
2023/11/08 05:35:07;;;;;;;3.03;1.45;;;10.60;99.90;;;;;;5062957;28;20036;-76
2023/11/08 05:37:53;;;;;;;3.83;1.30;;;10.60;99.90;;;;;;5049145;28;20490;-77
2023/11/08 05:40:39;;;;;;;2.67;1.55;;;10.60;99.90;;;;;;5063497;28;20044;-70
2023/11/08 05:43:26;;;;;;;3.03;1.40;;;10.60;99.90;;;;;;5063907;28;20043;-70
2023/11/08 05:46:13;;;;;;;3.65;1.58;;;10.60;99.90;;;;;;5058936;28;20130;-69
2023/11/08 05:49:00;;;;;;;3.15;1.50;;;10.60;99.90;;;;;;5068456;28;20091;-69
2023/11/08 05:51:46;;;;;;;3.50;1.90;;;10.60;99.90;;;;;;5047959;28;20094;-73
2023/11/08 05:54:31;;;;;;;5.03;2.22;;;10.60;99.90;;;;;;5048549;28;20048;-75
2023/11/08 05:57:18;;;;;;;3.55;1.60;;;10.60;99.90;;;;;;5047866;28;20114;-75
2023/11/08 06:00:08;;;;;;;3.33;1.70;;;10.60;99.90;;;;;;5051088;28;20124;-75
2023/11/08 06:02:54;;;;;;;4.07;1.33;;;10.60;99.90;;;;;;5048897;28;20075;-76
2023/11/08 06:05:40;;;;;;;4.57;2.17;;;10.70;99.90;;;;;;5055609;28;20040;-77
2023/11/08 06:08:26;;;;;;;2.75;1.75;;;10.70;99.90;;;;;;5050001;28;20109;-77
2023/11/08 06:11:15;;;;;;;5.13;2.13;;;10.70;99.90;;;;;;5068477;28;20066;-75
2023/11/08 06:14:02;;;;;;;2.90;1.55;;;10.70;99.90;;;;;;5067421;28;20051;-76
2023/11/08 06:16:48;;;;;;;2.65;1.50;;;10.70;99.90;;;;;;5051224;28;20456;-79
2023/11/08 06:19:34;;;;;;;3.63;1.67;;;10.70;99.90;;;;;;5062929;28;20123;-77
2023/11/08 06:22:20;;;;;;;3.88;1.40;;;10.70;99.90;;;;;;5065711;28;20036;-73
2023/11/08 06:25:07;;;;;;;3.75;1.50;;;10.80;99.90;;;;;;5070434;28;20123;-74
2023/11/08 06:27:53;;;;;;;3.40;1.65;;;10.70;99.90;;;;;;5069108;28;20539;-74
2023/11/08 06:30:39;;;;;;;3.85;1.63;;;10.80;99.90;;;;;;5053047;28;20098;-74
2023/11/08 06:33:25;;;;;;;5.38;1.58;;;10.80;99.90;;;;;;5051008;28;20053;-72
2023/11/08 06:36:13;;;;;;;2.47;1.70;;;10.80;99.90;;;;;;5051840;28;20053;-73
2023/11/08 06:38:59;;;;;;;3.78;1.65;;;10.80;99.90;;;;;;5055673;28;20551;-73
2023/11/08 06:41:45;;;;;;;2.90;1.48;;;10.80;99.90;;;;;;5070962;28;20040;-73
2023/11/08 06:44:31;;;;;;;7.05;2.13;;;10.80;99.90;;;;;;5063884;28;20049;-73
2023/11/08 06:47:18;;;;;;;4.03;1.80;;;10.90;99.90;;;;;;5050758;28;20048;-73
2023/11/08 06:50:04;;;;;;;3.40;1.77;;;10.90;99.90;;;;;;5050942;28;20490;-73
2023/11/08 06:52:50;;;;;;;2.33;1.35;;;10.90;99.90;;;;;;5051594;28;20041;-72
2023/11/08 06:55:37;;;;;;;4.82;1.70;;;10.90;99.90;;;;;;5052967;28;20472;-73
2023/11/08 06:58:24;;;;;;;3.40;1.80;;;11.00;99.90;;;;;;5050178;28;20045;-72
2023/11/08 07:01:11;;;;;;;5.10;1.60;;;11.00;99.90;;;;;;5059144;28;20068;-73
2023/11/08 07:03:58;;;;;;;3.08;1.83;;;10.90;99.90;;;;;;5051087;28;20041;-72
2023/11/08 07:06:45;;;;;;;3.42;2.00;;;10.90;99.90;;;;;;5051719;28;20510;-72
2023/11/08 07:09:31;;;;;;;5.47;1.83;;;11.00;99.90;;;;;;5064625;28;20048;-72
2023/11/08 07:12:17;;;;;;;2.72;1.63;;;11.00;99.90;;;;;;5068016;28;20033;-74
2023/11/08 07:15:03;;;;;;;2.55;1.83;;;11.00;99.90;;;;;;5050996;28;20087;-73
2023/11/08 07:17:49;;;;;;;2.80;1.40;;;11.00;99.90;;;;;;5056412;28;20497;-74
2023/11/08 07:20:36;;;;;;;5.65;1.85;;;11.10;99.90;;;;;;5054518;28;20049;-75
2023/11/08 07:23:22;;;;;;;3.75;1.67;;;11.10;99.90;;;;;;5050463;28;20075;-75
2023/11/08 07:26:08;;;;;;;3.42;1.67;;;11.10;99.90;;;;;;5050699;28;20053;-73
2023/11/08 07:28:54;;;;;;;5.00;1.92;;;11.10;99.90;;;;;;5068307;28;20045;-72
2023/11/08 07:31:40;;;;;;;4.32;1.80;;;11.20;99.90;;;;;;5070598;28;20386;-72
2023/11/08 07:34:26;;;;;;;4.38;1.80;;;11.20;99.90;;;;;;5070631;28;20044;-71
2023/11/08 07:37:13;;;;;;;3.85;1.70;;;11.30;99.90;;;;;;5068231;28;20123;-71
2023/11/08 07:39:59;;;;;;;3.10;1.77;;;11.30;99.90;;;;;;5059936;28;20498;-72
2023/11/08 07:42:46;;;;;;;6.28;2.17;;;11.30;99.90;;;;;;5050843;28;20037;-71
2023/11/08 07:45:32;;;;;;;4.55;1.50;;;11.30;99.90;;;;;;5050900;28;20111;-72
2023/11/08 07:48:18;;;;;;;3.33;1.90;;;11.30;99.90;;;;;;5050905;28;20040;-71
2023/11/08 07:51:08;;;;;;;5.30;1.58;;;11.40;99.90;;;;;;5048826;28;20132;-71
2023/11/08 07:53:56;;;;;;;5.80;1.80;;;11.50;99.90;;;;;;5053483;28;20047;-72
2023/11/08 07:56:43;;;;;;;5.43;1.77;;;11.40;99.90;;;;;;5062979;28;20064;-72
2023/11/08 07:59:29;;;;;;;4.70;1.98;;;11.50;99.90;;;;;;5063861;28;20045;-75
2023/11/08 08:02:16;;;;;;;3.45;1.65;;;11.50;99.90;;;;;;5054502;28;20040;-73
2023/11/08 08:05:02;;;;;;;3.15;1.55;;;11.60;99.90;;;;;;5062213;28;20398;-74
2023/11/08 08:07:51;;;;;;;4.65;1.75;;;11.60;99.90;;;;;;5061250;28;20064;-73
2023/11/08 08:10:37;;;;;;;4.65;2.10;;;11.60;99.90;;;;;;5061250;28;20096;-75
2023/11/08 08:13:23;;;;;;;4.65;1.83;;;11.60;99.90;;;;;;5049505;28;20052;-79
2023/11/08 08:16:09;;;;;;;6.10;2.00;;;11.60;99.90;;;;;;5049771;28;20056;-78
2023/11/08 08:18:55;;;;;;;5.47;1.88;;;11.70;99.90;;;;;;5056842;28;20044;-80
2023/11/08 08:21:43;;;;;;;3.63;1.50;;;11.70;99.90;;;;;;5055353;28;20128;-78
2023/11/08 08:24:29;;;;;;;5.38;1.50;;;11.70;99.90;;;;;;5052409;28;20053;-78
2023/11/08 08:27:15;;;;;;;4.47;2.10;;;11.70;99.90;;;;;;5055272;28;20078;-77
2023/11/08 08:30:01;;;;;;;4.13;2.00;;;11.70;99.90;;;;;;5050233;28;20094;-77
2023/11/08 08:32:47;;;;;;;4.38;1.85;;;11.80;99.90;;;;;;5058281;28;20047;-77
2023/11/08 08:35:33;;;;;;;3.47;1.67;;;11.80;99.90;;;;;;5049925;28;20100;-76
2023/11/08 08:38:19;;;;;;;3.92;1.40;;;11.80;99.90;;;;;;5062949;28;20048;-77
2023/11/08 08:41:05;;;;;;;3.97;1.73;;;11.80;99.90;;;;;;5068341;28;20162;-77
2023/11/08 08:43:51;;;;;;;3.80;1.48;;;11.80;99.90;;;;;;5052068;28;20055;-77
2023/11/08 08:46:37;;;;;;;3.47;1.80;;;11.90;99.90;;;;;;5048694;28;20483;-77
2023/11/08 08:49:23;;;;;;;3.42;1.95;;;11.90;99.90;;;;;;5068388;28;20043;-73
2023/11/08 08:52:09;;;;;;;3.47;2.15;;;11.90;99.90;;;;;;5061000;28;20128;-78
2023/11/08 08:54:55;;;;;;;3.80;1.50;;;11.90;99.90;;;;;;5050201;28;20095;-78
2023/11/08 08:57:46;;;;;;;4.80;1.95;;;11.90;99.90;;;;;;5049647;28;20041;-78
2023/11/08 09:00:32;;;;;;;4.15;1.90;;;11.90;99.90;;;;;;5050979;28;20130;-69
2023/11/08 09:03:18;;;;;;;3.70;1.55;;;11.90;99.90;;;;;;5060551;28;20033;-70
2023/11/08 09:06:04;;;;;;;3.13;1.50;;;12.00;99.90;;;;;;5051881;28;20559;-71
2023/11/08 09:08:50;;;;;;;3.08;1.45;;;12.00;99.90;;;;;;5049001;28;20072;-70
2023/11/08 09:11:36;;;;;;;2.35;1.45;;;12.10;99.90;;;;;;5063274;28;20126;-70
2023/11/08 09:14:22;;;;;;;4.82;1.80;;;12.20;99.90;;;;;;5066281;28;20040;-71
2023/11/08 09:17:08;;;;;;;4.57;2.00;;;12.20;99.90;;;;;;5067532;28;20176;-71
2023/11/08 09:19:54;;;;;;;4.40;1.70;;;12.30;99.90;;;;;;5068718;28;20563;-71
2023/11/08 09:22:40;;;;;;;3.95;1.58;;;12.50;99.90;;;;;;5069171;28;20044;-71
2023/11/08 09:25:26;;;;;;;2.20;1.67;;;12.50;99.90;;;;;;5054427;28;20051;-70
2023/11/08 09:28:12;;;;;;;3.00;1.70;;;12.60;99.90;;;;;;5057337;28;20561;-71
2023/11/08 09:30:58;;;;;;;4.22;2.08;;;12.60;99.90;;;;;;5048254;28;20037;-71
2023/11/08 09:33:44;;;;;;;9.20;1.77;;;12.70;99.90;;;;;;5052477;28;20091;-71
2023/11/08 09:36:31;;;;;;;2.40;1.50;;;12.80;99.90;;;;;;5060552;28;20091;-72
2023/11/08 09:39:17;;;;;;;5.88;1.60;;;12.80;99.90;;;;;;5068054;28;20044;-70
2023/11/08 09:42:04;;;;;;;5.18;1.98;;;12.80;99.90;;;;;;5058056;28;20118;-71
2023/11/08 09:44:50;;;;;;;2.88;1.42;;;12.80;99.90;;;;;;5047876;28;20131;-72
2023/11/08 09:47:37;;;;;;;4.00;1.92;;;12.90;99.90;;;;;;5049037;28;20055;-71
2023/11/08 09:50:24;;;;;;;3.03;1.80;;;12.90;99.90;;;;;;5048502;28;20761;-72
2023/11/08 09:53:10;;;;;;;3.47;1.52;;;13.00;99.90;;;;;;5064231;28;20048;-72
2023/11/08 09:55:59;;;;;;;3.80;1.70;;;13.00;99.90;;;;;;5051885;28;20040;-72
2023/11/08 09:58:45;;;;;;;4.13;1.95;;;13.00;99.90;;;;;;5070418;28;20106;-73
2023/11/08 10:01:36;;;;;;;3.25;1.60;;;13.00;99.90;;;;;;5066459;28;20040;-72
2023/11/08 10:04:23;;;;;;;4.30;1.70;;;13.10;99.90;;;;;;5071399;28;20387;-72
2023/11/08 10:07:09;;;;;;;5.00;2.20;;;13.10;99.90;;;;;;5068349;28;20052;-73
2023/11/08 10:09:55;;;;;;;4.97;1.98;;;13.10;99.90;;;;;;5063024;28;20067;-73
2023/11/08 10:12:43;;;;;;;3.35;1.50;;;13.20;99.90;;;;;;5052231;28;20098;-73
2023/11/08 10:15:30;;;;;;;6.63;1.80;;;13.20;99.90;;;;;;5051796;28;20498;-71
2023/11/08 10:18:27;;;;;;;2.58;1.50;;;13.20;99.90;;;;;;5054405;28;20041;-72
2023/11/08 10:21:18;;;;;;;2.30;1.20;;;13.30;99.90;;;;;;5056452;28;20055;-72
2023/11/08 10:24:14;;;;;;;2.78;1.50;;;13.30;99.90;;;;;;5057660;28;20055;-72
2023/11/08 10:27:11;;;;;;;2.40;1.60;;;13.30;99.80;;;;;;5059371;28;20056;-73
2023/11/08 10:30:20;;;;;;;2.88;1.73;;;13.40;99.80;;;;;;5053574;28;20041;-74
2023/11/08 10:33:11;;;;;;;2.28;1.70;;;13.40;99.80;;;;;;5052175;28;20075;-72
2023/11/08 10:35:57;;;;;;;2.95;1.55;;;13.50;99.70;;;;;;5051673;28;20029;-74
2023/11/08 10:38:43;;;;;;;4.30;2.35;;;13.50;99.60;;;;;;5051623;28;20040;-73
2023/11/08 10:41:29;;;;;;;3.22;1.65;;;13.50;99.40;;;;;;5052486;28;20406;-73
2023/11/08 10:44:22;;;;;;;5.32;2.10;;;13.60;99.40;;;;;;5052279;28;20125;-73
2023/11/08 10:47:08;;;;;;;3.13;1.45;;;13.60;99.30;;;;;;5066768;28;20079;-72
2023/11/08 10:49:54;;;;;;;2.55;1.33;;;13.60;99.20;;;;;;5066707;28;20486;-72
2023/11/08 10:52:40;;;;;;;4.18;2.00;;;13.70;99.10;;;;;;5058139;28;20177;-72
2023/11/08 10:55:26;;;;;;;2.25;1.35;;;13.60;98.90;;;;;;5069738;28;20068;-72
2023/11/08 10:58:13;;;;;;;2.85;1.80;;;13.70;98.80;;;;;;5054422;28;20521;-74
2023/11/08 11:01:02;;;;;;;4.32;1.58;;;13.60;98.70;;;;;;5053898;28;20041;-74
2023/11/08 11:03:51;;;;;;;5.53;1.65;;;13.60;98.60;;;;;;5062921;28;20052;-73
2023/11/08 11:06:39;;;;;;;2.50;1.50;;;13.60;98.50;;;;;;5051080;28;20037;-74
2023/11/08 11:09:25;;;;;;;4.80;1.70;;;13.60;98.70;;;;;;5050820;28;20132;-74
2023/11/08 11:12:18;;;;;;;2.60;1.50;;;13.60;98.50;;;;;;5053122;28;20055;-73
2023/11/08 11:15:11;;;;;;;3.60;1.88;;;13.50;98.30;;;;;;5050189;28;20060;-74
2023/11/08 11:17:59;;;;;;;9.15;1.80;;;13.60;98.30;;;;;;5064371;28;20553;-73
2023/11/08 11:20:54;;;;;;;3.47;2.00;;;13.60;98.40;;;;;;5068639;28;20483;-73
2023/11/08 11:23:41;;;;;;;4.53;1.98;;;13.60;98.30;;;;;;5052859;28;20207;-73
2023/11/08 11:26:46;;;;;;;5.38;1.90;;;13.60;98.30;;;;;;5055839;28;20037;-74
2023/11/08 11:29:33;;;;;;;5.68;2.28;;;13.70;98.30;;;;;;5063829;28;20052;-74
2023/11/08 11:32:34;;;;;;;2.72;2.08;;;13.70;98.30;;;;;;5065688;28;20041;-73
2023/11/08 11:35:43;;;;;;;4.30;1.92;;;13.70;98.20;;;;;;5057077;28;20118;-72
2023/11/08 11:38:29;;;;;;;4.75;2.20;;;13.70;98.10;;;;;;5050400;28;20222;-73
2023/11/08 11:41:22;;;;;;;3.58;1.60;;;13.70;98.10;;;;;;5051119;28;20041;-73
2023/11/08 11:44:10;;;;;;;2.10;1.40;;;13.70;98.10;;;;;;5054654;28;20036;-73
2023/11/08 11:46:56;;;;;;;2.83;1.73;;;13.70;98.00;;;;;;5052488;28;20095;-73
2023/11/08 11:49:47;;;;;;;2.78;1.67;;;13.70;98.00;;;;;;5049551;28;20044;-73
2023/11/08 11:52:34;;;;;;;4.57;1.70;;;13.70;97.90;;;;;;5050474;28;20041;-72
2023/11/08 11:55:20;;;;;;;2.17;1.48;;;13.70;97.90;;;;;;5051899;28;20041;-70
2023/11/08 11:58:09;;;;;;;2.78;1.55;;;13.70;97.90;;;;;;5049344;28;20605;-71
2023/11/08 12:00:56;;;;;;;3.88;1.83;;;13.70;97.90;;;;;;5049891;28;20029;-70
2023/11/08 12:03:42;;;;;;;2.40;1.40;;;13.70;98.00;;;;;;5054564;28;20032;-74
2023/11/08 12:06:28;;;;;;;2.53;1.45;;;13.70;98.10;;;;;;5056068;28;20469;-74
2023/11/08 12:09:14;;;;;;;2.83;1.30;;;13.80;98.10;;;;;;5049322;28;20030;-74
2023/11/08 12:12:01;;;;;;;3.95;1.50;;;13.80;98.10;;;;;;5068152;28;20044;-74
2023/11/08 12:14:47;;;;;;;5.28;1.48;;;13.80;98.10;;;;;;5060183;28;20044;-73
2023/11/08 12:17:34;;;;;;;3.35;1.45;;;13.80;98.00;;;;;;5069190;28;20037;-74
2023/11/08 12:20:21;;;;;;;1.27;1.10;;;13.80;97.90;;;;;;5051201;28;20052;-74
2023/11/08 12:23:07;;;;;;;1.95;1.70;;;13.80;97.80;;;;;;5055772;28;20045;-74
2023/11/08 12:25:54;;;;;;;2.47;1.50;;;13.80;97.80;;;;;;5054264;28;20051;-73
2023/11/08 12:28:42;;;;;;;2.85;1.60;;;13.80;97.70;;;;;;5051171;28;20041;-73
2023/11/08 12:31:28;;;;;;;4.25;1.40;;;13.80;97.60;;;;;;5067181;28;20048;-73
2023/11/08 12:34:15;;;;;;;2.58;1.40;;;13.80;97.60;;;;;;5061519;28;20379;-72
2023/11/08 12:37:01;;;;;;;1.70;1.10;;;13.90;97.50;;;;;;5065172;28;20544;-73
2023/11/08 12:39:48;;;;;;;2.00;1.30;;;13.90;97.50;;;;;;5050646;28;20095;-75
2023/11/08 12:42:34;;;;;;;2.22;1.38;;;13.90;97.40;;;;;;5041736;28;20040;-74
2023/11/08 12:45:33;;;;;;;2.22;1.50;;;13.90;97.20;;;;;;5066706;28;20040;-72
2023/11/08 12:48:19;;;;;;;1.75;1.30;;;13.90;97.20;;;;;;5047747;28;20525;-72
2023/11/08 12:51:07;;;;;;;2.17;1.40;;;13.90;97.10;;;;;;5049788;28;20268;-72
2023/11/08 12:53:55;;;;;;;4.28;1.58;;;13.80;96.90;;;;;;5059666;28;20049;-72
2023/11/08 12:56:41;;;;;;;2.70;1.48;;;13.70;96.90;;;;;;5061540;28;20506;-72
2023/11/08 12:59:27;;;;;;;2.88;1.50;;;13.80;96.90;;;;;;5063504;28;20139;-74
2023/11/08 13:02:18;;;;;;;4.18;1.50;;;13.70;96.90;;;;;;5048612;28;20080;-73
2023/11/08 13:05:04;;;;;;;2.53;1.60;;;13.70;96.90;;;;;;5059603;28;20508;-71
2023/11/08 13:07:50;;;;;;;3.00;1.40;;;13.70;96.90;;;;;;5039921;28;20072;-71
2023/11/08 13:10:36;;;;;;;5.22;1.65;;;13.70;97.00;;;;;;5052326;28;20080;-72
2023/11/08 13:13:22;;;;;;;3.45;1.70;;;13.80;96.90;;;;;;5052683;28;20106;-73
2023/11/08 13:16:08;;;;;;;2.30;1.40;;;13.80;96.70;;;;;;5049018;28;20032;-74
2023/11/08 13:18:54;;;;;;;3.13;1.70;;;13.80;96.70;;;;;;5049543;28;20056;-72
2023/11/08 13:21:40;;;;;;;2.33;1.58;;;13.90;96.70;;;;;;5065105;28;20501;-73
2023/11/08 13:24:26;;;;;;;3.28;1.45;;;13.90;96.70;;;;;;5065214;28;20037;-71
2023/11/08 13:27:13;;;;;;;2.15;1.48;;;14.00;96.70;;;;;;5061963;28;20449;-74
2023/11/08 13:29:59;;;;;;;4.45;1.50;;;14.10;96.60;;;;;;5066717;28;20135;-72
2023/11/08 13:32:46;;;;;;;7.00;1.95;;;14.10;96.50;;;;;;5072577;28;20118;-73
2023/11/08 13:35:32;;;;;;;3.03;1.48;;;14.20;96.50;;;;;;5052009;28;20045;-74
2023/11/08 13:38:18;;;;;;;2.00;1.13;;;14.20;96.20;;;;;;5052312;28;20045;-75
2023/11/08 13:41:05;;;;;;;1.67;1.20;;;14.30;96.20;;;;;;5054106;28;20041;-73
2023/11/08 13:43:51;;;;;;;1.65;0.98;;;14.30;96.10;;;;;;5071910;28;20290;-73
2023/11/08 13:46:38;;;;;;;5.13;1.42;;;14.30;96.10;;;;;;5072731;28;20064;-72
2023/11/08 13:49:24;;;;;;;2.60;1.40;;;14.30;96.00;;;;;;5072507;28;20123;-73
2023/11/08 13:52:10;;;;;;;2.88;1.10;;;14.20;95.90;;;;;;5053095;28;20037;-74
2023/11/08 13:54:59;;;;;;;2.10;1.13;;;14.20;95.90;;;;;;5051630;28;20076;-73
2023/11/08 13:57:48;;;;;;;4.72;1.58;;;14.20;95.90;;;;;;5052452;28;20090;-72
2023/11/08 14:00:34;;;;;;;3.35;1.40;;;14.30;96.00;;;;;;5080320;28;20063;-72
2023/11/08 14:03:20;;;;;;;2.35;1.55;;;14.20;95.80;;;;;;5076681;28;20028;-74
2023/11/08 14:06:07;;;;;;;2.80;1.58;;;14.30;95.80;;;;;;5091286;28;20101;-74
2023/11/08 14:08:53;;;;;;;1.70;1.30;;;14.20;95.70;;;;;;5056805;28;20119;-72
2023/11/08 14:11:39;;;;;;;2.80;1.63;;;14.20;95.70;;;;;;5051613;28;20498;-72
2023/11/08 14:14:25;;;;;;;2.97;1.63;;;14.20;95.70;;;;;;5051575;28;20502;-72
2023/11/08 14:17:11;;;;;;;4.43;1.77;;;14.20;95.70;;;;;;5058745;28;20025;-72
2023/11/08 14:19:57;;;;;;;3.38;1.67;;;14.20;95.70;;;;;;5067759;28;20044;-71
2023/11/08 14:22:44;;;;;;;3.20;1.42;;;14.20;95.70;;;;;;5052217;28;20029;-72
2023/11/08 14:25:31;;;;;;;3.30;1.58;;;14.20;95.70;;;;;;5051958;28;20076;-72
2023/11/08 14:28:18;;;;;;;2.60;1.70;;;14.20;95.70;;;;;;5073632;28;20428;-73
2023/11/08 14:31:05;;;;;;;4.57;1.70;;;14.20;95.70;;;;;;5071365;28;20058;-74